Chapelle-lez-Herlaimont, Belgium
Current Conditions -  °F | °C
As of 9:20 AM on Saturday 29 Nov 2014 (Local Time) from EBCI Reporting Station
Clear Clear  
Wind Chill: 39°   Ceiling: Unl
Heat Index: 39°   Visibility: 6mi
Dew Point: 36°   Wind: 3mph
Humidity: 87%   Direction: 150°SSE
Pressure: 29.88"   Gusts: NA
Location:  50.47°N, 4.28°E
Report Text: EBCI 290820Z 15003KT 110V190 CAVOK 04/02 Q1012 NOSIG
Loading
Personal Weather Stations






























Interactive Weather Map New forecast layout! Learn more

10-Day Weather Forecast

Advertisements
Track Severe Weather on mobile